Ladelle, Arkansas
Current Conditions -  °F | °C
As of 9:53 PM on Friday 19 Dec 2014 (Local Time) from KLLQ Reporting Station
Overcast Overcast  
Wind Chill: 40°   Ceiling: 6000
Heat Index: 44°   Visibility: 10mi
Dew Point: 40°   Wind: 7mph
Humidity: 85%   Direction: 40°NE
Pressure: 30.23"   Gusts: NA
Location:  33.5819°N, 91.7907°W
Report Text: KLLQ 200353Z AUTO 04006KT 10SM FEW009 SCT048 OVC060 07/04 A3023 RMK AO2 SLP236 T00670044
Loading
Personal Weather Stations






























Interactive Weather Map New forecast layout! Learn more

10-Day Weather Forecast

Advertisements
Track Severe Weather on mobile